Terminal Aerodrome Forecast
Issued by NWS North Platte, NE

Home | Current Version | Previous Version | Text Only | Print | Product List | Glossary Off
Versions: 1 2 3 4 5 6 7 8 9 10 11 12

917
FTUS43 KLBF 201126
TAFVTN
TAF
KVTN 201126Z 2012/2112 25005KT P6SM SCT250
     FM201500 25008KT P6SM BKN200
     FM210000 27005KT P6SM BKN080
     FM210300 25005KT P6SM OVC050=

USA.gov is the U.S. government's official web portal to all federal, state and local government web resources and services.